KSBA/SBA METAR and TAF weather

Enter ICAO airport designator
Station Type Date Time Source
KSBA METAR 2019/10/15 03:53 UTC NOAA

KSBA 150353Z 10003KT 10SM CLR 14/09 A2992 RMK AO2 SLP131 T01390094


Station Type Date Time Source
KSBA Decoded METAR 2019/10/15 03:53 UTC NOAA

SANTA BARBARA MUNICIPAL, CA, United States (KSBA) 34-26N 119-51W 3M
Oct 14, 2019 - 11:53 PM EDT / 2019.10.15 0353 UTC
Wind: from the E (100 degrees) at 3 MPH (3 KT):0
Visibility: 10 mile(s):0
Sky conditions: clear
Temperature: 57.0 F (13.9 C)
Dew Point: 48.9 F (9.4 C)
Relative Humidity: 74%
Pressure (altimeter): 29.92 in. Hg (1013 hPa)
ob: KSBA 150353Z 10003KT 10SM CLR 14/09 A2992 RMK AO2 SLP131 T01390094
cycle: 4

Station Type Date Time Source
KSBA TAF 2019/10/14 18:39 UTC NOAA

TAF KSBA 141737Z 1418/1518 15005KT P6SM SKC
FM142100 24010KT P6SM SKC
FM150200 VRB03KT P6SM SKC
FM151600 16005KT P6SM SKC

Example: see airport list